createdAt,value
2022-08-28T00:00:30.585Z,100973.50
2022-08-28T00:02:59.845Z,100977.19
2022-08-28T00:05:31.935Z,100978.34
2022-08-28T00:08:00.890Z,100982.66
2022-08-28T00:10:30.305Z,100983.00
2022-08-28T00:12:58.286Z,100982.19
2022-08-28T00:15:28.980Z,100983.97
2022-08-28T00:17:56.621Z,100984.84
2022-08-28T00:20:29.763Z,100983.00
2022-08-28T00:22:58.313Z,100992.63
2022-08-28T00:25:28.826Z,100989.28
2022-08-28T00:27:58.376Z,100999.25
2022-08-28T00:30:28.344Z,101000.28
2022-08-28T00:32:58.406Z,100996.78
2022-08-28T00:35:27.648Z,100993.47
2022-08-28T00:37:57.471Z,100996.28
2022-08-28T00:40:28.600Z,100998.44
2022-08-28T00:43:01.369Z,101001.28
2022-08-28T00:45:29.886Z,101003.94
2022-08-28T00:47:57.438Z,100996.13
2022-08-28T00:50:51.367Z,100998.94
2022-08-28T00:53:19.784Z,100995.63
2022-08-28T00:55:47.935Z,100993.31
2022-08-28T00:58:16.111Z,100994.81
2022-08-28T01:00:44.178Z,101000.44
2022-08-28T01:03:12.067Z,100990.00
2022-08-28T01:05:43.589Z,100986.84
2022-08-28T01:08:11.408Z,100988.81
2022-08-28T01:10:41.569Z,100986.47
2022-08-28T01:13:09.355Z,100994.63
2022-08-28T01:15:39.363Z,100990.59
2022-08-28T01:18:10.094Z,100990.94
2022-08-28T01:20:44.739Z,100986.28
2022-08-28T01:23:21.366Z,100988.75
2022-08-28T01:25:50.283Z,100990.75
2022-08-28T01:28:18.598Z,100996.22
2022-08-28T01:30:48.542Z,100995.56
2022-08-28T01:33:16.594Z,100995.72
2022-08-28T01:35:48.464Z,100999.69
2022-08-28T01:38:20.016Z,101000.69
2022-08-28T01:40:54.226Z,100996.53
2022-08-28T01:43:26.182Z,100998.53
2022-08-28T01:46:00.076Z,101002.16
2022-08-28T01:48:28.074Z,101006.00
2022-08-28T01:50:56.265Z,101003.34
2022-08-28T01:53:26.327Z,100992.38
2022-08-28T01:56:04.745Z,100993.53
2022-08-28T01:58:37.873Z,100988.72
2022-08-28T02:01:09.631Z,100994.00
2022-08-28T02:03:37.550Z,100994.00
2022-08-28T02:06:05.662Z,100996.81
2022-08-28T02:08:33.301Z,100997.00
2022-08-28T02:11:02.202Z,100996.16
2022-08-28T02:13:29.783Z,100998.97
2022-08-28T02:15:57.996Z,100994.84
2022-08-28T02:18:25.563Z,100994.00
2022-08-28T02:20:53.128Z,100999.44
2022-08-28T02:23:20.722Z,100995.97
2022-08-28T02:25:49.866Z,100993.31
2022-08-28T02:28:19.878Z,100993.66
2022-08-28T02:30:47.495Z,100989.19
2022-08-28T02:33:16.145Z,100989.19
2022-08-28T02:35:44.356Z,100994.50
2022-08-28T02:38:12.159Z,101002.44
2022-08-28T02:40:41.232Z,101007.75
2022-08-28T02:43:08.868Z,100997.97
2022-08-28T02:45:37.757Z,100995.47
2022-08-28T02:48:05.784Z,101002.59
2022-08-28T02:50:43.792Z,101009.72
2022-08-28T02:53:12.552Z,101005.72
2022-08-28T02:55:40.472Z,101008.38
2022-08-28T02:58:09.559Z,101015.16
2022-08-28T03:00:38.511Z,101002.94
2022-08-28T03:03:06.253Z,101009.06
2022-08-28T03:05:35.197Z,101009.72
2022-08-28T03:08:02.928Z,101007.91
2022-08-28T03:10:30.457Z,101001.59
2022-08-28T03:12:58.115Z,101011.22
2022-08-28T03:15:25.643Z,101003.28
2022-08-28T03:17:54.606Z,101014.69
2022-08-28T03:20:22.326Z,101011.22
2022-08-28T03:23:16.075Z,101012.22
2022-08-28T03:25:43.714Z,101015.88
2022-08-28T03:28:11.621Z,101000.44
2022-08-28T03:30:39.703Z,101007.19
2022-08-28T03:33:08.590Z,101011.00
2022-08-28T03:35:37.636Z,101015.50
2022-08-28T03:38:05.580Z,101014.47
2022-08-28T03:40:33.412Z,101022.59
2022-08-28T03:43:01.858Z,101020.94
2022-08-28T03:45:29.476Z,101019.59
2022-08-28T03:47:57.376Z,101019.09
2022-08-28T03:50:26.729Z,101016.91
2022-08-28T03:52:56.480Z,101007.31
2022-08-28T03:55:26.873Z,101017.72
2022-08-28T03:57:54.930Z,101016.91
2022-08-28T04:00:22.756Z,101026.69
2022-08-28T04:02:50.512Z,101024.19
2022-08-28T04:05:18.592Z,101032.28
2022-08-28T04:07:47.490Z,101030.59
2022-08-28T04:10:15.942Z,101035.06
2022-08-28T04:12:43.653Z,101035.22
2022-08-28T04:15:12.709Z,101035.38
2022-08-28T04:17:41.175Z,101039.03
2022-08-28T04:20:10.915Z,101041.53
2022-08-28T04:22:38.959Z,101041.53
2022-08-28T04:25:09.180Z,101044.34
2022-08-28T04:27:36.965Z,101048.63
2022-08-28T04:30:54.581Z,101053.09
2022-08-28T04:37:09.534Z,101047.31
2022-08-28T04:40:11.428Z,101058.22
2022-08-28T04:43:22.737Z,101064.31
2022-08-28T04:46:16.042Z,101060.84
2022-08-28T04:56:23.017Z,101065.50
2022-08-28T04:59:29.582Z,101064.47
2022-08-28T05:02:53.349Z,101061.84
2022-08-28T05:09:25.300Z,101072.28
2022-08-28T05:12:26.088Z,101071.63
2022-08-28T05:19:12.414Z,101074.94
2022-08-28T05:22:28.991Z,101073.28
2022-08-28T05:25:01.489Z,101080.22
2022-08-28T05:32:22.384Z,101079.41
2022-08-28T05:39:00.066Z,101093.69
2022-08-28T05:42:05.607Z,101095.34
2022-08-28T05:45:03.283Z,101092.72
2022-08-28T05:48:02.708Z,101090.06
2022-08-28T05:51:09.992Z,101092.03
2022-08-28T05:54:19.072Z,101091.19
2022-08-28T05:57:39.918Z,101083.25
2022-08-28T06:01:09.035Z,101090.22
2022-08-28T06:04:27.535Z,101091.34
2022-08-28T06:07:04.687Z,101093.16
2022-08-28T06:10:42.234Z,101093.16
2022-08-28T06:13:19.094Z,101099.84
2022-08-28T06:16:59.754Z,101100.66
2022-08-28T06:23:25.716Z,101099.66
2022-08-28T06:26:46.359Z,101109.00
2022-08-28T06:33:01.885Z,101109.66
2022-08-28T06:36:00.174Z,101113.47
2022-08-28T06:38:54.454Z,101113.75
2022-08-28T06:41:57.318Z,101124.81
2022-08-28T06:45:10.580Z,101116.19
2022-08-28T06:51:11.243Z,101123.13
2022-08-28T06:53:42.929Z,101129.13
2022-08-28T06:56:13.729Z,101139.19
2022-08-28T06:58:56.926Z,101141.31
2022-08-28T07:01:29.381Z,101137.34
2022-08-28T07:04:00.245Z,101142.38
2022-08-28T07:06:31.333Z,101137.06
2022-08-28T07:09:00.743Z,101146.22
2022-08-28T07:11:31.680Z,101150.69
2022-08-28T07:14:03.441Z,101141.28
2022-08-28T07:16:34.040Z,101154.44
2022-08-28T07:19:05.462Z,101160.38
2022-08-28T07:21:38.653Z,101167.16
2022-08-28T07:24:10.921Z,101170.00
2022-08-28T07:26:41.928Z,101172.13
2022-08-28T07:29:11.548Z,101164.28
2022-08-28T07:31:42.209Z,101174.78
2022-08-28T07:34:11.958Z,101181.25
2022-08-28T07:36:41.385Z,101180.97
2022-08-28T07:39:16.280Z,101178.19
2022-08-28T07:41:45.216Z,101178.50
2022-08-28T07:44:33.954Z,101188.13
2022-08-28T07:47:06.173Z,101188.28
2022-08-28T07:49:38.305Z,101198.22
2022-08-28T07:52:08.019Z,101181.81
2022-08-28T07:54:40.891Z,101187.75
2022-08-28T07:57:11.715Z,101192.00
2022-08-28T07:59:42.187Z,101191.47
2022-08-28T08:02:11.924Z,101189.25
2022-08-28T08:04:41.632Z,101194.31
2022-08-28T08:07:13.137Z,101189.91
2022-08-28T08:09:46.755Z,101199.28
2022-08-28T08:12:16.241Z,101199.53
2022-08-28T08:14:45.855Z,101202.09
2022-08-28T08:17:14.764Z,101200.84
2022-08-28T08:19:42.536Z,101203.59
2022-08-28T08:22:12.563Z,101207.38
2022-08-28T08:24:43.169Z,101206.00
2022-08-28T08:27:14.175Z,101210.13
2022-08-28T08:29:43.886Z,101209.50
2022-08-28T08:32:13.834Z,101210.06
2022-08-28T08:34:46.111Z,101210.50
2022-08-28T08:37:14.603Z,101212.16
2022-08-28T08:39:45.633Z,101221.31
2022-08-28T08:42:24.440Z,101218.06
2022-08-28T08:44:55.190Z,101218.38
2022-08-28T08:47:30.172Z,101222.28
2022-08-28T08:50:01.297Z,101223.38
2022-08-28T08:52:36.018Z,101231.41
2022-08-28T08:55:31.999Z,101230.59
2022-08-28T08:58:06.028Z,101232.59
2022-08-28T09:00:38.734Z,101236.50
2022-08-28T09:03:10.839Z,101244.25
2022-08-28T09:05:50.552Z,101245.28
2022-08-28T09:12:58.702Z,101238.69
2022-08-28T09:16:56.330Z,101239.06
2022-08-28T09:20:12.656Z,101234.03
2022-08-28T09:23:53.554Z,101245.25
2022-08-28T09:27:02.071Z,101239.25
2022-08-28T09:30:22.895Z,101246.31
2022-08-28T09:39:56.442Z,101251.94
2022-08-28T09:42:42.556Z,101248.22
2022-08-28T09:45:18.465Z,101250.00
2022-08-28T09:55:40.663Z,101257.47
2022-08-28T09:59:14.823Z,101263.22
2022-08-28T10:03:10.622Z,101255.28
2022-08-28T10:09:00.808Z,101271.03
2022-08-28T10:12:03.177Z,101271.53
2022-08-28T10:15:14.449Z,101275.25
2022-08-28T10:18:20.287Z,101271.44
2022-08-28T10:21:44.984Z,101267.91
2022-08-28T10:25:45.804Z,101268.28
2022-08-28T10:31:55.897Z,101272.72
2022-08-28T10:34:40.961Z,101272.09
2022-08-28T10:37:19.990Z,101272.72
2022-08-28T10:39:54.454Z,101283.94
2022-08-28T10:42:35.813Z,101285.84
2022-08-28T10:45:08.594Z,101289.22
2022-08-28T10:47:40.679Z,101290.03
2022-08-28T10:50:15.443Z,101287.66
2022-08-28T10:52:48.976Z,101291.06
2022-08-28T10:55:21.692Z,101294.13
2022-08-28T10:57:57.521Z,101290.69
2022-08-28T11:00:27.355Z,101293.56
2022-08-28T11:02:59.166Z,101298.53
2022-08-28T11:05:30.570Z,101301.03
2022-08-28T11:08:01.773Z,101298.22
2022-08-28T11:10:46.379Z,101304.25
2022-08-28T11:13:45.811Z,101309.66
2022-08-28T11:16:19.871Z,101310.69
2022-08-28T11:21:37.855Z,101320.34
2022-08-28T11:24:09.989Z,101310.69
2022-08-28T11:26:47.633Z,101316.03
2022-08-28T11:29:48.718Z,101317.88
2022-08-28T11:32:46.813Z,101325.38
2022-08-28T11:35:50.057Z,101326.06
2022-08-28T11:38:55.353Z,101324.69
2022-08-28T11:41:26.572Z,101324.84
2022-08-28T11:44:26.881Z,101320.88
2022-08-28T11:47:14.742Z,101316.22
2022-08-28T11:49:46.002Z,101312.38
2022-08-28T11:52:33.926Z,101312.00
2022-08-28T11:55:14.468Z,101317.34
2022-08-28T12:00:34.837Z,101315.72
2022-08-28T12:03:14.708Z,101325.22
2022-08-28T12:05:52.726Z,101316.88
2022-08-28T12:08:58.695Z,101322.38
2022-08-28T12:12:12.206Z,101315.03
2022-08-28T12:15:23.449Z,101317.50
2022-08-28T12:18:00.520Z,101315.00
2022-08-28T12:20:40.206Z,101315.81
2022-08-28T12:23:39.122Z,101315.97
2022-08-28T12:26:13.963Z,101318.81
2022-08-28T12:29:03.420Z,101318.50
2022-08-28T12:32:15.280Z,101318.16
2022-08-28T12:35:19.230Z,101327.28
2022-08-28T12:38:27.764Z,101321.13
2022-08-28T12:44:31.968Z,101325.78
2022-08-28T12:50:37.251Z,101320.38
2022-08-28T12:53:52.832Z,101318.84
2022-08-28T12:56:22.590Z,101313.38
2022-08-28T12:58:50.888Z,101311.91
2022-08-28T13:01:29.342Z,101321.53
2022-08-28T13:04:00.176Z,101319.38
2022-08-28T13:06:31.575Z,101319.53
2022-08-28T13:09:02.088Z,101319.91
2022-08-28T13:11:34.935Z,101320.56
2022-08-28T13:14:04.324Z,101312.41
2022-08-28T13:16:39.403Z,101320.56
2022-08-28T13:19:29.212Z,101323.56
2022-08-28T13:22:01.774Z,101314.19
2022-08-28T13:24:50.326Z,101318.53
2022-08-28T13:27:25.300Z,101309.91
2022-08-28T13:29:59.766Z,101310.88
2022-08-28T13:32:30.801Z,101306.75
2022-08-28T13:35:13.594Z,101307.41
2022-08-28T13:37:44.475Z,101306.41
2022-08-28T13:40:30.202Z,101315.38
2022-08-28T13:43:06.951Z,101315.56
2022-08-28T13:45:42.849Z,101312.25
2022-08-28T13:48:11.535Z,101306.06
2022-08-28T13:50:41.654Z,101309.41
2022-08-28T13:53:09.291Z,101304.56
2022-08-28T13:55:36.871Z,101311.06
2022-08-28T13:58:05.792Z,101316.53
2022-08-28T14:00:37.083Z,101319.53
2022-08-28T14:03:22.067Z,101320.06
2022-08-28T14:05:49.568Z,101316.69
2022-08-28T14:08:17.120Z,101307.06
2022-08-28T14:10:44.657Z,101313.06
2022-08-28T14:13:14.294Z,101309.25
2022-08-28T14:15:42.133Z,101303.41
2022-08-28T14:18:09.646Z,101303.59
2022-08-28T14:20:39.184Z,101300.09
2022-08-28T14:23:06.874Z,101299.44
2022-08-28T14:25:39.069Z,101293.94
2022-08-28T14:28:07.010Z,101290.78
2022-08-28T14:30:35.908Z,101290.78
2022-08-28T14:33:03.418Z,101291.44
2022-08-28T14:35:30.952Z,101294.94
2022-08-28T14:37:58.501Z,101285.31
2022-08-28T14:40:26.167Z,101283.63
2022-08-28T14:42:53.711Z,101286.47
2022-08-28T14:45:21.235Z,101280.47
2022-08-28T14:47:50.067Z,101282.97
2022-08-28T14:50:17.632Z,101283.16
2022-08-28T14:52:45.149Z,101279.66
2022-08-28T14:55:20.491Z,101287.63
2022-08-28T14:57:51.329Z,101276.31
2022-08-28T15:00:21.597Z,101275.97
2022-08-28T15:02:59.648Z,101284.44
2022-08-28T15:05:29.672Z,101286.63
2022-08-28T15:07:58.787Z,101277.66
2022-08-28T15:10:28.051Z,101276.81
2022-08-28T15:12:56.943Z,101272.16
2022-08-28T15:15:28.278Z,101259.69
2022-08-28T15:17:58.986Z,101263.66
2022-08-28T15:20:28.503Z,101258.16
2022-08-28T15:22:57.430Z,101257.84
2022-08-28T15:25:29.032Z,101262.00
2022-08-28T15:27:58.027Z,101263.00
2022-08-28T15:30:30.565Z,101256.38
2022-08-28T15:33:01.925Z,101256.03
2022-08-28T15:35:31.485Z,101260.66
2022-08-28T15:38:03.686Z,101259.31
2022-08-28T15:40:53.711Z,101254.66
2022-08-28T15:43:23.061Z,101256.16
2022-08-28T15:45:53.301Z,101258.66
2022-08-28T15:48:24.680Z,101265.78
2022-08-28T15:51:01.292Z,101256.47
2022-08-28T15:53:34.506Z,101265.09
2022-08-28T15:56:04.457Z,101251.63
2022-08-28T15:58:40.097Z,101254.94
2022-08-28T16:01:16.669Z,101260.91
2022-08-28T16:03:50.343Z,101255.59
2022-08-28T16:06:29.436Z,101259.09
2022-08-28T16:09:04.737Z,101262.41
2022-08-28T16:12:04.452Z,101257.91
2022-08-28T16:14:56.686Z,101252.25
2022-08-28T16:17:24.575Z,101257.56
2022-08-28T16:19:53.753Z,101258.38
2022-08-28T16:22:21.479Z,101265.56
2022-08-28T16:24:48.970Z,101258.38
2022-08-28T16:27:20.173Z,101256.56
2022-08-28T16:33:08.178Z,101246.25
2022-08-28T16:38:46.267Z,101246.91
2022-08-28T16:44:31.995Z,101258.94
2022-08-28T16:47:11.185Z,101244.94
2022-08-28T16:52:56.124Z,101260.91
2022-08-28T16:55:49.089Z,101261.94
2022-08-28T16:58:28.104Z,101254.75
2022-08-28T17:01:00.718Z,101249.94
2022-08-28T17:03:28.695Z,101250.13
2022-08-28T17:05:56.848Z,101251.31
2022-08-28T17:08:25.718Z,101247.16
2022-08-28T17:10:53.266Z,101248.16
2022-08-28T17:13:20.774Z,101248.50
2022-08-28T17:15:48.378Z,101253.16
2022-08-28T17:18:15.923Z,101249.84
2022-08-28T17:21:01.250Z,101251.03
2022-08-28T17:23:30.058Z,101249.69
2022-08-28T17:25:57.710Z,101249.03
2022-08-28T17:28:25.347Z,101252.84
2022-08-28T17:30:52.945Z,101258.34
2022-08-28T17:33:20.591Z,101253.50
2022-08-28T17:35:50.296Z,101254.84
2022-08-28T17:38:19.653Z,101259.69
2022-08-28T17:40:48.699Z,101263.66
2022-08-28T17:43:16.193Z,101265.00
2022-08-28T17:45:43.973Z,101274.31
2022-08-28T17:48:11.683Z,101275.81
2022-08-28T17:50:39.361Z,101278.16
2022-08-28T17:53:06.892Z,101273.31
2022-08-28T17:55:34.410Z,101280.16
2022-08-28T17:58:03.285Z,101280.66
2022-08-28T18:00:31.881Z,101284.63
2022-08-28T18:02:59.775Z,101284.28
2022-08-28T18:05:27.556Z,101289.25
2022-08-28T18:07:55.074Z,101292.41
2022-08-28T18:10:22.614Z,101289.41
2022-08-28T18:12:50.367Z,101298.06
2022-08-28T18:15:19.848Z,101301.19
2022-08-28T18:17:50.381Z,101298.19
2022-08-28T18:20:18.867Z,101302.97
2022-08-28T18:22:47.006Z,101306.13
2022-08-28T18:25:29.778Z,101309.25
2022-08-28T18:27:57.564Z,101310.56
2022-08-28T18:30:27.180Z,101312.06
2022-08-28T18:32:55.472Z,101309.72
2022-08-28T18:35:30.347Z,101314.53
2022-08-28T18:38:00.204Z,101317.66
2022-08-28T18:40:28.139Z,101311.84
2022-08-28T18:42:55.673Z,101314.13
2022-08-28T18:45:23.202Z,101318.94
2022-08-28T18:47:52.374Z,101327.22
2022-08-28T18:50:22.044Z,101323.03
2022-08-28T18:52:50.320Z,101321.56
2022-08-28T18:55:18.915Z,101320.03
2022-08-28T18:57:46.843Z,101329.13
2022-08-28T19:00:16.516Z,101325.97
2022-08-28T19:02:45.004Z,101324.63
2022-08-28T19:05:14.883Z,101332.09
2022-08-28T19:07:42.982Z,101331.53
2022-08-28T19:10:31.811Z,101338.44
2022-08-28T19:12:59.390Z,101335.28
2022-08-28T19:15:26.930Z,101335.72
2022-08-28T19:17:54.590Z,101340.53
2022-08-28T19:20:27.991Z,101341.66
2022-08-28T19:22:56.109Z,101346.75
2022-08-28T19:25:28.181Z,101341.94
2022-08-28T19:27:59.133Z,101347.69
2022-08-28T19:30:31.229Z,101348.81
2022-08-28T19:32:59.279Z,101352.78
2022-08-28T19:35:28.292Z,101362.16
2022-08-28T19:37:56.378Z,101357.88
2022-08-28T19:40:32.092Z,101370.72
2022-08-28T19:43:09.754Z,101366.72
2022-08-28T19:45:58.957Z,101358.91
2022-08-28T19:48:56.669Z,101365.81
2022-08-28T19:51:42.529Z,101360.97
2022-08-28T19:54:16.765Z,101362.09
2022-08-28T19:57:11.175Z,101378.47
2022-08-28T19:59:58.099Z,101369.13
2022-08-28T20:02:29.105Z,101367.47
2022-08-28T20:05:12.152Z,101376.56
2022-08-28T20:07:43.913Z,101375.88
2022-08-28T20:10:52.223Z,101377.13
2022-08-28T20:17:16.445Z,101378.03
2022-08-28T20:19:53.406Z,101381.81
2022-08-28T20:22:25.912Z,101385.56
2022-08-28T20:25:10.751Z,101386.84
2022-08-28T20:27:59.522Z,101392.44
2022-08-28T20:30:55.264Z,101389.56
2022-08-28T20:34:17.056Z,101392.63
2022-08-28T20:37:10.250Z,101391.28
2022-08-28T20:39:45.573Z,101403.81
2022-08-28T20:42:28.369Z,101401.63
2022-08-28T20:45:12.534Z,101407.22
2022-08-28T20:47:46.120Z,101406.69
2022-08-28T20:50:18.591Z,101398.31
2022-08-28T20:52:53.610Z,101408.22
2022-08-28T20:55:28.966Z,101400.56
2022-08-28T20:58:15.894Z,101405.31
2022-08-28T21:00:59.621Z,101408.25
2022-08-28T21:03:57.248Z,101399.75
2022-08-28T21:06:36.722Z,101404.50
2022-08-28T21:12:19.142Z,101407.03
2022-08-28T21:15:02.772Z,101394.22
2022-08-28T21:17:47.708Z,101405.22
2022-08-28T21:20:34.392Z,101407.44
2022-08-28T21:23:10.308Z,101413.88
2022-08-28T21:25:50.769Z,101416.81
2022-08-28T21:28:20.426Z,101417.09
2022-08-28T21:31:07.982Z,101418.31
2022-08-28T21:33:45.573Z,101421.97
2022-08-28T21:36:20.934Z,101423.06
2022-08-28T21:38:55.694Z,101423.22
2022-08-28T21:41:43.298Z,101408.47
2022-08-28T21:44:17.552Z,101410.44
2022-08-28T21:46:46.761Z,101410.69
2022-08-28T21:49:14.342Z,101415.13
2022-08-28T21:51:42.176Z,101413.63
2022-08-28T21:54:09.827Z,101406.78
2022-08-28T21:56:37.335Z,101410.44
2022-08-28T21:59:04.907Z,101414.03
2022-08-28T22:01:32.652Z,101417.66
2022-08-28T22:04:01.668Z,101425.03
2022-08-28T22:06:29.314Z,101424.34
2022-08-28T22:08:57.830Z,101427.25
2022-08-28T22:11:27.206Z,101434.38
2022-08-28T22:13:56.705Z,101427.41
2022-08-28T22:16:25.440Z,101431.16
2022-08-28T22:18:53.131Z,101421.69
2022-08-28T22:21:54.456Z,101432.41
2022-08-28T22:24:22.235Z,101432.53
2022-08-28T22:27:00.249Z,101425.72
2022-08-28T22:32:25.822Z,101432.94
2022-08-28T22:35:07.408Z,101430.44
2022-08-28T22:37:57.298Z,101431.56
2022-08-28T22:43:40.544Z,101436.16
2022-08-28T22:46:16.575Z,101436.28
2022-08-28T22:48:53.801Z,101436.44
2022-08-28T22:51:35.572Z,101445.31
2022-08-28T22:54:10.234Z,101447.41
2022-08-28T22:56:39.924Z,101449.22
2022-08-28T22:59:08.715Z,101442.25
2022-08-28T23:01:38.820Z,101445.88
2022-08-28T23:04:08.224Z,101446.00
2022-08-28T23:06:48.215Z,101450.59
2022-08-28T23:09:20.621Z,101448.34
2022-08-28T23:11:49.858Z,101444.88
2022-08-28T23:14:19.563Z,101443.19
2022-08-28T23:16:49.333Z,101452.13
2022-08-28T23:19:25.772Z,101447.91
2022-08-28T23:21:56.528Z,101441.09
2022-08-28T23:24:31.767Z,101445.81
2022-08-28T23:27:19.404Z,101449.53
2022-08-28T23:29:53.340Z,101445.34
2022-08-28T23:32:22.607Z,101444.66
2022-08-28T23:34:51.640Z,101445.06
2022-08-28T23:37:21.142Z,101444.34
2022-08-28T23:40:10.304Z,101440.47
2022-08-28T23:42:48.847Z,101444.19
2022-08-28T23:45:23.408Z,101442.66
2022-08-28T23:47:58.531Z,101439.31
2022-08-28T23:50:31.539Z,101436.09
2022-08-28T23:53:01.191Z,101440.25
2022-08-28T23:55:33.394Z,101435.50
2022-08-28T23:58:05.689Z,101434.22
